LVCTT SADM-SADF
Flight info
| Callsign | LVCTT |
|---|---|
| Flight time | 0h 7m |
| Altitude | 1500 |
| Route | DCT PAL DCT |
| Aircraft | C414/L-SDG/C |
Departure
| Time | 2026-05-05 20:39 |
|---|---|
| Airport | Morón Airport (SADM) |
Arrival
| Time | 2026-05-05 20:47 |
|---|---|
| Airport | San Fernando Airport (SADF) |
| Time | Latitude | Longitude | Altitude | Speed | Heading |
|---|---|---|---|---|---|
| 2026-05-05 20:08 | -34.66650 | -58.64321 | 88 ft | 0 kts | 351° |
| 2026-05-05 20:24 | -34.66647 | -58.64322 | 90 ft | 2 kts | 346° |
| 2026-05-05 20:25 | -34.66641 | -58.64351 | 89 ft | 5 kts | 246° |
| 2026-05-05 20:25 | -34.66671 | -58.64360 | 89 ft | 7 kts | 165° |
| 2026-05-05 20:25 | -34.66734 | -58.64342 | 88 ft | 11 kts | 167° |
| 2026-05-05 20:25 | -34.66807 | -58.64316 | 90 ft | 11 kts | 139° |
| 2026-05-05 20:26 | -34.66807 | -58.64228 | 88 ft | 11 kts | 76° |
| 2026-05-05 20:26 | -34.66797 | -58.64178 | 87 ft | 0 kts | 76° |
| 2026-05-05 20:36 | -34.66797 | -58.64177 | 87 ft | 0 kts | 76° |
| 2026-05-05 20:38 | -34.66787 | -58.64135 | 88 ft | 8 kts | 74° |
| 2026-05-05 20:38 | -34.66775 | -58.64060 | 89 ft | 10 kts | 104° |
| 2026-05-05 20:38 | -34.66798 | -58.64044 | 87 ft | 0 kts | 193° |
| 2026-05-05 20:38 | -34.66956 | -58.64090 | 87 ft | 52 kts | 194° |
| 2026-05-05 20:39 | -34.67475 | -58.64237 | 90 ft | 98 kts | 195° |
| 2026-05-05 20:39 | -34.68226 | -58.64465 | 195 ft | 121 kts | 195° |
| 2026-05-05 20:39 | -34.69046 | -58.64727 | 548 ft | 115 kts | 195° |
| 2026-05-05 20:39 | -34.69821 | -58.64872 | 768 ft | 116 kts | 160° |
| 2026-05-05 20:40 | -34.70162 | -58.64050 | 890 ft | 121 kts | 68° |
| 2026-05-05 20:40 | -34.69515 | -58.63472 | 1037 ft | 124 kts | 18° |
| 2026-05-05 20:40 | -34.68697 | -58.63135 | 1224 ft | 124 kts | 17° |
| 2026-05-05 20:40 | -34.67867 | -58.62809 | 1354 ft | 129 kts | 15° |
| 2026-05-05 20:41 | -34.66978 | -58.62536 | 1450 ft | 135 kts | 12° |
| 2026-05-05 20:41 | -34.66043 | -58.62290 | 1498 ft | 144 kts | 11° |
| 2026-05-05 20:41 | -34.65043 | -58.62030 | 1554 ft | 148 kts | 11° |
| 2026-05-05 20:41 | -34.64009 | -58.61773 | 1559 ft | 154 kts | 11° |
| 2026-05-05 20:42 | -34.62947 | -58.61547 | 1637 ft | 154 kts | 7° |
| 2026-05-05 20:42 | -34.61891 | -58.61377 | 1681 ft | 156 kts | 7° |
| 2026-05-05 20:42 | -34.60805 | -58.61180 | 1690 ft | 159 kts | 10° |
| 2026-05-05 20:42 | -34.59722 | -58.60871 | 1716 ft | 160 kts | 14° |
| 2026-05-05 20:43 | -34.58623 | -58.60550 | 1684 ft | 164 kts | 12° |
| 2026-05-05 20:43 | -34.57501 | -58.60149 | 1541 ft | 172 kts | 19° |
| 2026-05-05 20:43 | -34.56396 | -58.59644 | 1510 ft | 170 kts | 21° |
| 2026-05-05 20:43 | -34.55297 | -58.59147 | 1511 ft | 167 kts | 17° |
| 2026-05-05 20:44 | -34.54187 | -58.58716 | 1466 ft | 168 kts | 17° |
| 2026-05-05 20:44 | -34.53057 | -58.58451 | 1465 ft | 166 kts | 360° |
| 2026-05-05 20:44 | -34.51922 | -58.58721 | 1364 ft | 170 kts | 336° |
| 2026-05-05 20:44 | -34.50894 | -58.59453 | 1171 ft | 168 kts | 325° |
| 2026-05-05 20:45 | -34.49241 | -58.61062 | 1084 ft | 135 kts | 318° |
| 2026-05-05 20:45 | -34.48543 | -58.61647 | 954 ft | 110 kts | 344° |
| 2026-05-05 20:45 | -34.47793 | -58.61609 | 723 ft | 110 kts | 13° |
| 2026-05-05 20:46 | -34.47131 | -58.61162 | 480 ft | 113 kts | 49° |
| 2026-05-05 20:46 | -34.46617 | -58.60453 | 263 ft | 109 kts | 44° |
| 2026-05-05 20:46 | -34.46071 | -58.59812 | 93 ft | 110 kts | 43° |
| 2026-05-05 20:46 | -34.45562 | -58.59213 | 22 ft | 91 kts | 44° |
| 2026-05-05 20:47 | -34.45157 | -58.58736 | 22 ft | 75 kts | 44° |
| 2026-05-05 20:47 | -34.44974 | -58.58522 | 22 ft | 21 kts | 44° |
| 2026-05-05 20:47 | -34.44881 | -58.58412 | 22 ft | 13 kts | 43° |
| 2026-05-05 20:47 | -34.44847 | -58.58336 | 22 ft | 8 kts | 109° |
| 2026-05-05 20:48 | -34.44895 | -58.58284 | 22 ft | 11 kts | 141° |
| 2026-05-05 20:48 | -34.44969 | -58.58230 | 22 ft | 14 kts | 149° |
| 2026-05-05 20:48 | -34.45063 | -58.58162 | 22 ft | 17 kts | 149° |
| 2026-05-05 20:48 | -34.45174 | -58.58082 | 22 ft | 18 kts | 149° |
| 2026-05-05 20:49 | -34.45293 | -58.57996 | 22 ft | 16 kts | 151° |
| 2026-05-05 20:49 | -34.45350 | -58.58026 | 22 ft | 13 kts | 242° |
| 2026-05-05 20:49 | -34.45397 | -58.58133 | 22 ft | 16 kts | 241° |
| 2026-05-05 20:49 | -34.45452 | -58.58263 | 22 ft | 19 kts | 242° |
| 2026-05-05 20:50 | -34.45509 | -58.58393 | 22 ft | 15 kts | 241° |
| 2026-05-05 20:50 | -34.45562 | -58.58514 | 22 ft | 18 kts | 241° |
| 2026-05-05 20:50 | -34.45600 | -58.58602 | 22 ft | 10 kts | 242° |
| 2026-05-05 20:50 | -34.45630 | -58.58671 | 22 ft | 5 kts | 239° |
| 2026-05-05 20:51 | -34.45642 | -58.58675 | 22 ft | 0 kts | 147° |
| 2026-05-05 20:51 | -34.45647 | -58.58670 | 22 ft | 2 kts | 148° |
| 2026-05-05 20:51 | -34.45657 | -58.58653 | 22 ft | 4 kts | 72° |
| 2026-05-05 20:51 | -34.45653 | -58.58632 | 22 ft | 1 kts | 188° |
| 2026-05-05 20:52 | -34.45655 | -58.58633 | 22 ft | 0 kts | 243° |